createdAt,value
2018-06-21T00:00:25.414Z,798.30
2018-06-21T00:01:25.446Z,809.70
2018-06-21T00:02:25.500Z,812.70
2018-06-21T00:03:25.566Z,854.10
2018-06-21T00:04:25.605Z,877.20
2018-06-21T00:05:25.654Z,887.10
2018-06-21T00:06:25.695Z,880.70
2018-06-21T00:07:25.743Z,912.60
2018-06-21T00:08:25.791Z,936.40
2018-06-21T00:09:25.825Z,893.20
2018-06-21T00:10:25.859Z,900.30
2018-06-21T00:11:25.906Z,929.30
2018-06-21T00:12:25.955Z,939.30
2018-06-21T00:13:25.991Z,955.10
2018-06-21T00:14:26.074Z,942.50
2018-06-21T00:15:26.106Z,952.60
2018-06-21T00:16:26.152Z,941.50
2018-06-21T00:17:26.174Z,943.80
2018-06-21T00:18:26.277Z,926.70
2018-06-21T00:19:26.299Z,936.90
2018-06-21T00:20:26.312Z,926.40
2018-06-21T00:21:26.368Z,925.00
2018-06-21T00:22:26.388Z,947.80
2018-06-21T00:23:26.492Z,949.50
2018-06-21T00:24:26.533Z,937.60
2018-06-21T00:25:26.590Z,936.30
2018-06-21T00:26:26.600Z,939.30
2018-06-21T00:27:26.628Z,949.30
2018-06-21T00:28:26.686Z,962.80
2018-06-21T00:29:26.710Z,946.80
2018-06-21T00:30:26.756Z,957.70
2018-06-21T00:31:26.842Z,942.40
2018-06-21T00:32:26.880Z,946.70
2018-06-21T00:33:26.939Z,965.20
2018-06-21T00:34:26.925Z,954.30
2018-06-21T00:35:26.988Z,947.70
2018-06-21T00:36:27.056Z,953.00
2018-06-21T00:37:27.092Z,952.70
2018-06-21T00:38:27.161Z,946.10
2018-06-21T00:39:27.167Z,952.30
2018-06-21T00:40:27.189Z,950.90
2018-06-21T00:41:27.272Z,935.30
2018-06-21T00:42:27.327Z,953.00
2018-06-21T00:43:27.345Z,956.40
2018-06-21T00:44:27.405Z,949.40
2018-06-21T00:45:27.446Z,946.80
2018-06-21T00:46:27.521Z,941.70
2018-06-21T00:47:27.543Z,934.00
2018-06-21T00:48:27.596Z,911.60
2018-06-21T00:49:27.628Z,920.30
2018-06-21T00:50:27.674Z,915.30
2018-06-21T00:51:27.718Z,924.10
2018-06-21T00:52:27.762Z,936.30
2018-06-21T00:53:27.812Z,910.20
2018-06-21T00:54:28.107Z,938.60
2018-06-21T00:55:27.893Z,914.30
2018-06-21T00:56:27.920Z,924.90
2018-06-21T00:57:27.979Z,935.60
2018-06-21T00:58:28.029Z,919.00
2018-06-21T00:59:28.059Z,918.60
2018-06-21T01:00:28.119Z,909.90
2018-06-21T01:01:28.178Z,897.00
2018-06-21T01:02:28.208Z,907.30
2018-06-21T01:03:28.256Z,902.30
2018-06-21T01:04:28.279Z,916.20
2018-06-21T01:05:28.330Z,938.10
2018-06-21T01:06:28.360Z,908.20
2018-06-21T01:07:28.440Z,913.80
2018-06-21T01:08:28.465Z,893.20
2018-06-21T01:09:28.531Z,923.90
2018-06-21T01:10:28.578Z,911.90
2018-06-21T01:11:28.593Z,930.30
2018-06-21T01:12:28.646Z,916.30
2018-06-21T01:13:28.715Z,909.60
2018-06-21T01:14:28.747Z,920.50
2018-06-21T01:15:28.829Z,911.80
2018-06-21T01:16:28.828Z,907.60
2018-06-21T01:17:28.881Z,914.80
2018-06-21T01:18:28.913Z,921.60
2018-06-21T01:19:28.964Z,918.00
2018-06-21T01:20:29.007Z,912.50
2018-06-21T01:21:29.096Z,930.80
2018-06-21T01:22:29.104Z,914.70
2018-06-21T01:23:29.134Z,933.40
2018-06-21T01:24:29.178Z,934.00
2018-06-21T01:25:29.290Z,928.30
2018-06-21T01:26:29.292Z,944.50
2018-06-21T01:27:29.338Z,952.30
2018-06-21T01:28:29.360Z,940.00
2018-06-21T01:29:29.422Z,952.20
2018-06-21T01:30:29.460Z,943.70
2018-06-21T01:31:29.521Z,959.50
2018-06-21T01:32:31.053Z,969.20
2018-06-21T01:33:29.588Z,966.00
2018-06-21T01:34:29.617Z,973.80
2018-06-21T01:35:29.685Z,980.40
2018-06-21T01:36:29.703Z,976.10
2018-06-21T01:37:29.766Z,981.10
2018-06-21T01:38:29.818Z,978.80
2018-06-21T01:39:29.889Z,1001.20
2018-06-21T01:40:29.906Z,995.20
2018-06-21T01:41:29.939Z,985.80
2018-06-21T01:42:29.980Z,1006.00
2018-06-21T01:43:30.024Z,1000.80
2018-06-21T01:44:30.057Z,977.30
2018-06-21T01:45:30.142Z,994.60
2018-06-21T01:46:30.167Z,1018.50
2018-06-21T01:47:30.195Z,979.30
2018-06-21T01:48:30.275Z,1015.20
2018-06-21T01:49:30.320Z,1026.60
2018-06-21T01:50:30.328Z,1016.80
2018-06-21T01:51:30.393Z,1026.10
2018-06-21T01:52:30.427Z,1038.20
2018-06-21T01:53:30.484Z,1047.40
2018-06-21T01:54:30.542Z,1017.90
2018-06-21T01:55:30.558Z,1013.10
2018-06-21T01:56:30.613Z,1034.00
2018-06-21T01:57:30.658Z,1040.90
2018-06-21T01:58:30.714Z,1027.20
2018-06-21T01:59:30.761Z,1022.60
2018-06-21T02:00:30.777Z,1018.70
2018-06-21T02:01:30.842Z,1025.10
2018-06-21T02:02:30.873Z,1016.20
2018-06-21T02:03:30.942Z,1032.40
2018-06-21T02:04:30.984Z,1024.10
2018-06-21T02:05:31.209Z,1035.20
2018-06-21T02:06:31.043Z,1035.40
2018-06-21T02:07:31.097Z,1021.10
2018-06-21T02:08:31.146Z,1013.20
2018-06-21T02:09:31.190Z,1008.50
2018-06-21T02:10:31.218Z,1006.30
2018-06-21T02:11:31.284Z,1017.00
2018-06-21T02:12:31.319Z,1017.80
2018-06-21T02:13:31.359Z,1027.00
2018-06-21T02:14:31.399Z,987.40
2018-06-21T02:15:31.462Z,1003.40
2018-06-21T02:16:31.520Z,1013.40
2018-06-21T02:17:31.767Z,993.80
2018-06-21T02:18:31.575Z,986.80
2018-06-21T02:19:31.613Z,985.10
2018-06-21T02:20:31.707Z,972.60
2018-06-21T02:21:31.726Z,991.30
2018-06-21T02:22:31.788Z,998.20
2018-06-21T02:23:31.789Z,956.60
2018-06-21T02:24:31.862Z,966.50
2018-06-21T02:25:31.907Z,968.40
2018-06-21T02:26:31.948Z,943.70
2018-06-21T02:27:31.983Z,976.10
2018-06-21T02:28:32.026Z,959.70
2018-06-21T02:29:32.346Z,962.20
2018-06-21T02:30:32.123Z,963.20
2018-06-21T02:31:32.165Z,946.20
2018-06-21T02:32:32.214Z,960.60
2018-06-21T02:33:32.258Z,953.50
2018-06-21T02:34:32.280Z,945.20
2018-06-21T02:35:32.349Z,930.30
2018-06-21T02:36:32.399Z,916.50
2018-06-21T02:37:32.451Z,937.80
2018-06-21T02:38:32.473Z,941.90
2018-06-21T02:39:32.538Z,939.50
2018-06-21T02:40:32.559Z,913.20
2018-06-21T02:41:32.819Z,871.90
2018-06-21T02:42:32.686Z,875.70
2018-06-21T02:43:32.717Z,935.40
2018-06-21T02:44:32.740Z,930.90
2018-06-21T02:45:32.779Z,904.10
2018-06-21T02:46:32.815Z,885.30
2018-06-21T02:47:32.878Z,861.90
2018-06-21T02:48:32.916Z,895.20
2018-06-21T02:49:32.953Z,910.70
2018-06-21T02:50:32.985Z,882.80
2018-06-21T02:51:33.050Z,854.30
2018-06-21T02:52:33.114Z,872.80
2018-06-21T02:53:33.151Z,878.30
2018-06-21T02:54:33.162Z,878.00
2018-06-21T02:55:33.225Z,911.50
2018-06-21T02:56:33.278Z,905.30
2018-06-21T02:57:33.338Z,868.70
2018-06-21T02:58:33.375Z,813.50
2018-06-21T02:59:33.396Z,889.70
2018-06-21T03:00:33.494Z,852.30
2018-06-21T03:01:33.498Z,826.70
2018-06-21T03:02:33.543Z,826.40
2018-06-21T03:03:33.786Z,817.80
2018-06-21T03:04:33.602Z,848.90
2018-06-21T03:05:33.659Z,858.80
2018-06-21T03:06:33.718Z,865.60
2018-06-21T03:07:33.763Z,875.30
2018-06-21T03:08:33.786Z,851.90
2018-06-21T03:09:33.859Z,888.70
2018-06-21T03:10:33.892Z,856.40
2018-06-21T03:11:33.970Z,859.30
2018-06-21T03:12:33.960Z,884.90
2018-06-21T03:13:34.018Z,901.70
2018-06-21T03:14:34.058Z,839.90
2018-06-21T03:15:34.109Z,830.30
2018-06-21T03:16:34.145Z,821.40
2018-06-21T03:17:34.187Z,829.80
2018-06-21T03:18:34.241Z,802.20
2018-06-21T03:19:34.492Z,820.20
2018-06-21T03:20:34.325Z,805.10
2018-06-21T03:21:34.379Z,813.60
2018-06-21T03:22:34.402Z,810.30
2018-06-21T03:23:34.465Z,820.60
2018-06-21T03:24:34.515Z,790.80
2018-06-21T03:25:34.562Z,790.10
2018-06-21T03:26:34.595Z,799.30
2018-06-21T03:27:34.621Z,801.80
2018-06-21T03:28:34.701Z,791.10
2018-06-21T03:29:34.717Z,797.20
2018-06-21T03:30:34.782Z,798.70
2018-06-21T03:31:34.843Z,842.90
2018-06-21T03:32:34.851Z,844.70
2018-06-21T03:33:34.888Z,832.00
2018-06-21T03:34:34.948Z,814.30
2018-06-21T03:35:35.004Z,827.60
2018-06-21T03:36:35.049Z,810.20
2018-06-21T03:37:35.096Z,813.00
2018-06-21T03:38:35.121Z,800.20
2018-06-21T03:39:35.194Z,787.50
2018-06-21T03:40:35.199Z,806.30
2018-06-21T03:41:35.230Z,822.40
2018-06-21T03:42:35.309Z,844.40
2018-06-21T03:43:35.340Z,854.00
2018-06-21T03:44:35.374Z,833.30
2018-06-21T03:45:35.453Z,817.20
2018-06-21T03:46:35.484Z,794.80
2018-06-21T03:47:35.712Z,800.40
2018-06-21T03:48:35.572Z,824.50
2018-06-21T03:49:35.599Z,837.70
2018-06-21T03:50:35.655Z,823.60
2018-06-21T03:51:35.718Z,844.70
2018-06-21T03:52:35.762Z,826.90
2018-06-21T03:53:35.796Z,811.00
2018-06-21T03:54:35.849Z,829.90
2018-06-21T03:55:35.864Z,819.20
2018-06-21T03:56:35.909Z,801.60
2018-06-21T03:57:35.969Z,780.60
2018-06-21T03:58:35.990Z,805.80
2018-06-21T03:59:36.053Z,792.70
2018-06-21T04:00:36.057Z,829.60
2018-06-21T04:01:36.124Z,794.90
2018-06-21T04:02:36.179Z,842.30
2018-06-21T04:03:36.242Z,875.00
2018-06-21T04:04:36.266Z,885.60
2018-06-21T04:05:36.295Z,908.90
2018-06-21T04:06:36.330Z,946.40
2018-06-21T04:07:36.423Z,919.50
2018-06-21T04:08:36.632Z,935.40
2018-06-21T04:09:36.475Z,928.30
2018-06-21T04:10:36.548Z,935.60
2018-06-21T04:11:36.565Z,946.20
2018-06-21T04:12:36.626Z,945.60
2018-06-21T04:13:36.629Z,951.80
2018-06-21T04:14:36.694Z,948.00
2018-06-21T04:15:36.734Z,948.60
2018-06-21T04:16:36.788Z,951.40
2018-06-21T04:17:36.826Z,933.70
2018-06-21T04:18:36.856Z,927.20
2018-06-21T04:19:37.164Z,955.80
2018-06-21T04:20:36.923Z,959.40
2018-06-21T04:21:36.991Z,946.30
2018-06-21T04:22:37.057Z,944.80
2018-06-21T04:23:37.073Z,938.00
2018-06-21T04:24:37.175Z,967.60
2018-06-21T04:25:37.168Z,955.30
2018-06-21T04:26:37.211Z,939.10
2018-06-21T04:27:37.257Z,960.80
2018-06-21T04:28:37.314Z,972.30
2018-06-21T04:29:37.350Z,974.00
2018-06-21T04:30:37.367Z,961.40
2018-06-21T04:31:37.718Z,955.50
2018-06-21T04:32:37.507Z,980.40
2018-06-21T04:33:37.502Z,982.50
2018-06-21T04:34:37.539Z,978.90
2018-06-21T04:35:37.637Z,973.10
2018-06-21T04:36:37.652Z,969.60
2018-06-21T04:37:37.701Z,985.00
2018-06-21T04:38:37.731Z,974.90
2018-06-21T04:39:37.793Z,986.20
2018-06-21T04:40:37.828Z,979.50
2018-06-21T04:41:37.867Z,964.70
2018-06-21T04:42:38.116Z,959.30
2018-06-21T04:43:37.940Z,935.20
2018-06-21T04:44:37.964Z,945.40
2018-06-21T04:45:38.048Z,911.10
2018-06-21T04:46:38.085Z,910.50
2018-06-21T04:47:38.134Z,897.20
2018-06-21T04:48:38.185Z,915.50
2018-06-21T04:49:38.221Z,901.80
2018-06-21T04:50:38.246Z,871.00
2018-06-21T04:51:38.303Z,877.30
2018-06-21T04:52:38.355Z,858.30
2018-06-21T04:53:38.383Z,916.70
2018-06-21T04:54:38.391Z,862.70
2018-06-21T04:55:38.485Z,882.60
2018-06-21T04:56:38.514Z,832.60
2018-06-21T04:57:38.528Z,803.00
2018-06-21T04:58:38.856Z,818.30
2018-06-21T04:59:38.667Z,826.60
2018-06-21T05:00:38.684Z,835.00
2018-06-21T05:01:38.717Z,819.00
2018-06-21T05:02:38.763Z,808.90
2018-06-21T05:03:38.821Z,811.50
2018-06-21T05:04:38.865Z,809.00
2018-06-21T05:05:38.923Z,806.00
2018-06-21T05:06:38.951Z,800.40
2018-06-21T05:07:38.979Z,781.30
2018-06-21T05:08:39.048Z,804.50
2018-06-21T05:09:39.361Z,801.70
2018-06-21T05:10:39.133Z,810.60
2018-06-21T05:11:39.167Z,808.40
2018-06-21T05:12:39.205Z,811.00
2018-06-21T05:13:39.234Z,820.00
2018-06-21T05:14:39.285Z,794.50
2018-06-21T05:15:39.345Z,823.20
2018-06-21T05:16:39.398Z,801.20
2018-06-21T05:17:39.444Z,809.60
2018-06-21T05:18:39.462Z,847.40
2018-06-21T05:19:39.513Z,836.90
2018-06-21T05:20:39.528Z,824.80
2018-06-21T05:21:39.769Z,823.50
2018-06-21T05:22:39.630Z,838.20
2018-06-21T05:23:39.660Z,908.70
2018-06-21T05:24:39.706Z,879.30
2018-06-21T05:25:39.753Z,880.40
2018-06-21T05:26:39.814Z,879.80
2018-06-21T05:27:39.847Z,903.40
2018-06-21T05:28:39.875Z,895.20
2018-06-21T05:29:39.915Z,915.50
2018-06-21T05:30:39.996Z,911.70
2018-06-21T05:31:40.024Z,909.20
2018-06-21T05:32:40.047Z,931.60
2018-06-21T05:33:40.121Z,902.50
2018-06-21T05:34:40.167Z,912.30
2018-06-21T05:35:40.185Z,943.20
2018-06-21T05:36:40.444Z,935.00
2018-06-21T05:37:40.291Z,946.70
2018-06-21T05:38:40.323Z,928.90
2018-06-21T05:39:40.382Z,950.90
2018-06-21T05:40:40.422Z,927.40
2018-06-21T05:41:40.468Z,938.00
2018-06-21T05:42:40.502Z,942.40
2018-06-21T05:43:40.536Z,941.80
2018-06-21T05:44:40.567Z,940.80
2018-06-21T05:45:40.625Z,928.40
2018-06-21T05:46:40.669Z,924.80
2018-06-21T05:47:40.713Z,916.60
2018-06-21T05:48:41.014Z,917.20
2018-06-21T05:49:40.799Z,896.60
2018-06-21T05:50:40.851Z,899.60
2018-06-21T05:51:40.875Z,897.10
2018-06-21T05:52:40.930Z,895.80
2018-06-21T05:53:40.954Z,898.20
2018-06-21T05:54:41.012Z,898.20
2018-06-21T05:55:41.080Z,873.70
2018-06-21T05:56:41.085Z,884.40
2018-06-21T05:57:41.122Z,868.60
2018-06-21T05:58:41.172Z,827.60
2018-06-21T05:59:41.229Z,824.40
2018-06-21T06:00:41.508Z,869.90
2018-06-21T06:01:41.274Z,821.60
2018-06-21T06:02:41.360Z,830.90
2018-06-21T06:03:41.386Z,832.70
2018-06-21T06:04:41.402Z,825.60
2018-06-21T06:05:41.466Z,836.20
2018-06-21T06:06:41.522Z,818.60
2018-06-21T06:07:41.562Z,814.10
2018-06-21T06:08:41.610Z,840.60
2018-06-21T06:09:41.653Z,825.40
2018-06-21T06:10:41.677Z,811.80
2018-06-21T06:11:41.728Z,820.30
2018-06-21T06:12:41.743Z,827.20
2018-06-21T06:13:41.786Z,806.50
2018-06-21T06:14:41.815Z,829.60
2018-06-21T06:15:41.879Z,815.40
2018-06-21T06:16:41.955Z,848.30
2018-06-21T06:17:41.949Z,823.80
2018-06-21T06:18:42.037Z,814.10
2018-06-21T06:19:42.054Z,792.90
2018-06-21T06:20:42.090Z,810.40
2018-06-21T06:21:42.129Z,817.50
2018-06-21T06:22:42.179Z,819.00
2018-06-21T06:23:42.225Z,814.20
2018-06-21T06:24:42.288Z,795.70
2018-06-21T06:25:42.301Z,802.20
2018-06-21T06:26:42.374Z,775.90
2018-06-21T06:27:42.389Z,793.10
2018-06-21T06:28:42.452Z,809.30
2018-06-21T06:29:42.475Z,789.60
2018-06-21T06:30:42.539Z,804.60
2018-06-21T06:31:42.542Z,807.90
2018-06-21T06:32:42.608Z,795.70
2018-06-21T06:33:42.648Z,789.40
2018-06-21T06:34:42.950Z,801.40
2018-06-21T06:35:42.727Z,808.40
2018-06-21T06:36:42.765Z,791.30
2018-06-21T06:37:42.846Z,796.50
2018-06-21T06:38:42.850Z,811.70
2018-06-21T06:39:42.890Z,805.20
2018-06-21T06:40:42.957Z,786.00
2018-06-21T06:41:42.976Z,790.20
2018-06-21T06:42:43.039Z,790.50
2018-06-21T06:43:43.074Z,778.70
2018-06-21T06:44:43.117Z,796.80
2018-06-21T06:45:43.368Z,793.10
2018-06-21T06:46:43.207Z,806.80
2018-06-21T06:47:43.267Z,788.30
2018-06-21T06:48:43.291Z,800.80
2018-06-21T06:49:43.336Z,807.40
2018-06-21T06:50:43.361Z,783.10
2018-06-21T06:51:43.418Z,833.30
2018-06-21T06:52:43.473Z,801.60
2018-06-21T06:53:43.524Z,801.40
2018-06-21T06:54:43.643Z,765.30
2018-06-21T06:55:43.601Z,798.20
2018-06-21T06:56:43.624Z,796.50
2018-06-21T06:57:43.659Z,791.60
2018-06-21T06:58:43.704Z,801.20
2018-06-21T06:59:43.742Z,797.30
2018-06-21T07:00:43.802Z,764.10
2018-06-21T07:01:44.061Z,777.90
2018-06-21T07:02:43.871Z,795.10
2018-06-21T07:03:43.940Z,794.50
2018-06-21T07:04:43.956Z,780.70
2018-06-21T07:05:43.987Z,816.20
2018-06-21T07:06:44.073Z,777.60
2018-06-21T07:07:44.088Z,801.70
2018-06-21T07:08:44.138Z,803.50
2018-06-21T07:09:44.204Z,782.50
2018-06-21T07:10:44.202Z,777.40
2018-06-21T07:11:44.276Z,785.90
2018-06-21T07:12:44.313Z,763.40
2018-06-21T07:13:44.373Z,789.50
2018-06-21T07:14:44.368Z,769.80
2018-06-21T07:15:44.453Z,773.90
2018-06-21T07:16:44.682Z,771.00
2018-06-21T07:17:44.545Z,777.10
2018-06-21T07:18:44.549Z,767.50
2018-06-21T07:19:44.625Z,767.60
2018-06-21T07:20:44.644Z,781.20
2018-06-21T07:21:44.686Z,805.90
2018-06-21T07:22:44.735Z,797.80
2018-06-21T07:23:44.798Z,783.40
2018-06-21T07:24:44.821Z,790.80
2018-06-21T07:25:44.846Z,789.00
2018-06-21T07:26:44.908Z,840.40
2018-06-21T07:27:44.921Z,818.60
2018-06-21T07:28:44.968Z,790.80
2018-06-21T07:29:45.124Z,769.70
2018-06-21T07:30:45.053Z,773.00
2018-06-21T07:31:45.168Z,753.80
2018-06-21T07:32:45.239Z,769.70
2018-06-21T07:33:45.201Z,779.30
2018-06-21T07:34:45.244Z,776.80
2018-06-21T07:35:45.284Z,798.30
2018-06-21T07:36:45.369Z,800.40
2018-06-21T07:37:45.334Z,763.40
2018-06-21T07:38:45.409Z,746.80
2018-06-21T07:39:45.432Z,743.10
2018-06-21T07:40:45.499Z,796.70
2018-06-21T07:41:45.520Z,774.30
2018-06-21T07:42:45.564Z,779.00
2018-06-21T07:43:45.625Z,782.70
2018-06-21T07:44:45.647Z,752.30
2018-06-21T07:45:45.715Z,780.30
2018-06-21T07:46:45.788Z,742.60
2018-06-21T07:47:45.781Z,770.30
2018-06-21T07:48:45.811Z,785.80
2018-06-21T07:49:45.845Z,782.70
2018-06-21T07:50:45.899Z,764.90
2018-06-21T07:51:45.964Z,765.40
2018-06-21T07:52:46.008Z,781.90
2018-06-21T07:53:46.072Z,763.40
2018-06-21T07:55:46.319Z,746.20
2018-06-21T07:56:46.156Z,767.20
2018-06-21T07:57:46.187Z,793.00
2018-06-21T07:58:46.241Z,799.60
2018-06-21T07:59:46.291Z,799.50
2018-06-21T08:00:46.345Z,793.20
2018-06-21T08:01:46.355Z,766.40
2018-06-21T08:02:46.412Z,824.70
2018-06-21T08:03:46.454Z,827.60
2018-06-21T08:04:46.501Z,802.20
2018-06-21T08:05:46.578Z,787.50
2018-06-21T08:06:46.780Z,771.10
2018-06-21T08:07:46.608Z,832.60
2018-06-21T08:08:46.656Z,816.30
2018-06-21T08:09:46.704Z,798.10
2018-06-21T08:10:46.737Z,798.20
2018-06-21T08:11:46.776Z,815.50
2018-06-21T08:12:46.863Z,831.00
2018-06-21T08:13:46.869Z,824.40
2018-06-21T08:14:46.925Z,817.50
2018-06-21T08:15:46.952Z,842.50
2018-06-21T08:16:47.002Z,825.60
2018-06-21T08:17:47.068Z,853.00
2018-06-21T08:18:47.072Z,808.90
2018-06-21T08:19:47.115Z,804.10
2018-06-21T08:20:47.188Z,831.00
2018-06-21T08:21:47.222Z,777.90
2018-06-21T08:22:47.450Z,783.40
2018-06-21T08:23:47.292Z,809.30
2018-06-21T08:24:47.363Z,798.50
2018-06-21T08:25:47.370Z,810.90
2018-06-21T08:26:47.463Z,778.20
2018-06-21T08:27:47.447Z,770.80
2018-06-21T08:28:47.503Z,800.50
2018-06-21T08:29:47.561Z,792.60
2018-06-21T08:30:47.617Z,795.20
2018-06-21T08:31:47.624Z,746.10
2018-06-21T08:32:47.677Z,775.60
2018-06-21T08:33:47.711Z,763.90
2018-06-21T08:34:47.943Z,800.70
2018-06-21T08:35:47.805Z,794.50
2018-06-21T08:36:47.842Z,784.60
2018-06-21T08:37:47.916Z,786.20
2018-06-21T08:38:47.977Z,755.90
2018-06-21T08:39:47.951Z,771.30
2018-06-21T08:40:47.990Z,785.90
2018-06-21T08:41:48.063Z,753.00
2018-06-21T08:42:48.091Z,742.90
2018-06-21T08:43:48.140Z,745.50
2018-06-21T08:44:48.184Z,797.90
2018-06-21T08:45:48.257Z,775.40
2018-06-21T08:46:48.265Z,756.80
2018-06-21T08:47:48.332Z,751.90
2018-06-21T08:48:48.337Z,750.00
2018-06-21T08:49:48.401Z,746.00
2018-06-21T08:50:48.440Z,751.30
2018-06-21T08:51:48.461Z,758.80
2018-06-21T08:52:48.536Z,742.30
2018-06-21T08:53:48.743Z,767.70
2018-06-21T08:54:48.621Z,732.20
2018-06-21T08:55:48.659Z,746.50
2018-06-21T08:56:48.707Z,712.80
2018-06-21T08:57:48.741Z,739.40
2018-06-21T08:58:48.767Z,728.30
2018-06-21T08:59:48.799Z,723.90
2018-06-21T09:00:48.831Z,773.60
2018-06-21T09:01:48.910Z,755.40
2018-06-21T09:02:48.936Z,716.10
2018-06-21T09:03:49.031Z,716.90
2018-06-21T09:04:49.021Z,749.80
2018-06-21T09:05:49.062Z,769.00
2018-06-21T09:06:49.095Z,742.10
2018-06-21T09:07:49.132Z,733.80
2018-06-21T09:08:49.173Z,761.40
2018-06-21T09:09:49.217Z,717.40
2018-06-21T09:10:49.249Z,737.00
2018-06-21T09:11:49.340Z,717.50
2018-06-21T09:12:49.342Z,723.00
2018-06-21T09:13:49.413Z,715.50
2018-06-21T09:14:49.437Z,724.40
2018-06-21T09:15:49.485Z,732.20
2018-06-21T09:16:49.712Z,745.30
2018-06-21T09:17:49.542Z,749.90
2018-06-21T09:18:49.605Z,756.20
2018-06-21T09:19:49.650Z,758.80
2018-06-21T09:20:49.680Z,774.30
2018-06-21T09:21:49.719Z,746.20
2018-06-21T09:22:49.742Z,741.50
2018-06-21T09:23:49.836Z,784.40
2018-06-21T09:24:49.854Z,795.50
2018-06-21T09:25:49.891Z,801.40
2018-06-21T09:26:49.932Z,763.90
2018-06-21T09:27:50.007Z,746.80
2018-06-21T09:28:50.006Z,738.00
2018-06-21T09:29:50.078Z,743.30
2018-06-21T09:30:50.103Z,764.90
2018-06-21T09:31:50.164Z,764.10
2018-06-21T09:32:50.188Z,772.20
2018-06-21T09:33:50.214Z,780.50
2018-06-21T09:34:50.287Z,752.40
2018-06-21T09:35:50.299Z,744.30
2018-06-21T09:36:50.355Z,753.80
2018-06-21T09:37:50.390Z,762.30
2018-06-21T09:38:50.447Z,761.50
2018-06-21T09:39:50.491Z,784.00
2018-06-21T09:40:50.504Z,763.60
2018-06-21T09:41:50.594Z,760.50
2018-06-21T09:42:50.591Z,774.80
2018-06-21T09:44:03.823Z,791.50
2018-06-21T09:44:50.677Z,792.70
2018-06-21T09:45:50.719Z,785.80
2018-06-21T09:46:50.780Z,795.30
2018-06-21T09:47:50.814Z,793.50
2018-06-21T09:48:51.050Z,784.60
2018-06-21T09:49:50.913Z,774.30
2018-06-21T09:50:50.928Z,784.70
2018-06-21T09:51:50.999Z,810.70
2018-06-21T09:52:51.023Z,826.20
2018-06-21T09:53:51.057Z,816.30
2018-06-21T09:54:51.104Z,798.40
2018-06-21T09:55:51.172Z,792.00
2018-06-21T09:56:51.214Z,761.10
2018-06-21T09:57:51.260Z,784.90
2018-06-21T09:58:51.282Z,765.90
2018-06-21T09:59:51.351Z,759.00
2018-06-21T10:00:51.377Z,826.70
2018-06-21T10:01:51.393Z,831.40
2018-06-21T10:02:51.450Z,791.20
2018-06-21T10:03:51.484Z,765.50
2018-06-21T10:04:51.520Z,764.10
2018-06-21T10:05:51.596Z,743.60
2018-06-21T10:06:51.629Z,703.80
2018-06-21T10:07:51.694Z,718.40
2018-06-21T10:08:51.707Z,715.30
2018-06-21T10:09:51.752Z,755.80
2018-06-21T10:10:51.791Z,678.20
2018-06-21T10:11:51.827Z,757.70
2018-06-21T10:12:51.888Z,760.20
2018-06-21T10:13:51.897Z,724.20
2018-06-21T10:14:51.986Z,707.50
2018-06-21T10:15:51.992Z,780.10
2018-06-21T10:16:52.030Z,765.60
2018-06-21T10:17:52.071Z,769.60
2018-06-21T10:18:52.109Z,755.90
2018-06-21T10:19:52.201Z,786.60
2018-06-21T10:20:52.201Z,795.00
2018-06-21T10:21:52.242Z,768.20
2018-06-21T10:22:52.293Z,776.30
2018-06-21T10:23:52.357Z,743.00
2018-06-21T10:24:52.373Z,815.70
2018-06-21T10:25:52.400Z,847.50
2018-06-21T10:26:52.456Z,860.20
2018-06-21T10:27:52.511Z,867.40
2018-06-21T10:28:52.539Z,882.40
2018-06-21T10:29:52.576Z,887.20
2018-06-21T10:30:52.604Z,888.00
2018-06-21T10:31:52.647Z,871.70
2018-06-21T10:32:52.733Z,921.50
2018-06-21T10:33:52.764Z,912.70
2018-06-21T10:34:52.774Z,906.10
2018-06-21T10:35:52.851Z,908.40
2018-06-21T10:36:52.895Z,930.00
2018-06-21T10:37:52.942Z,932.00
2018-06-21T10:38:52.963Z,931.20
2018-06-21T10:39:53.009Z,952.90
2018-06-21T10:40:53.055Z,904.50
2018-06-21T10:41:53.093Z,959.80
2018-06-21T10:42:53.144Z,937.60
2018-06-21T10:43:53.207Z,930.80
2018-06-21T10:44:53.220Z,892.10
2018-06-21T10:45:53.263Z,751.30
2018-06-21T10:46:53.319Z,716.30
2018-06-21T10:47:53.361Z,714.00
2018-06-21T10:48:53.400Z,647.40
2018-06-21T10:49:53.431Z,607.70
2018-06-21T10:50:53.470Z,553.20
2018-06-21T10:51:53.532Z,523.30
2018-06-21T10:52:53.577Z,469.80
2018-06-21T10:53:53.603Z,453.80
2018-06-21T10:54:53.631Z,445.20
2018-06-21T10:55:53.682Z,405.80
2018-06-21T10:56:53.735Z,397.80
2018-06-21T10:57:53.788Z,407.70
2018-06-21T10:58:53.847Z,410.20
2018-06-21T10:59:53.905Z,382.80
2018-06-21T11:00:53.925Z,378.40
2018-06-21T11:01:53.962Z,389.70
2018-06-21T11:02:54.008Z,481.30
2018-06-21T11:03:54.070Z,441.20
2018-06-21T11:04:54.115Z,412.90
2018-06-21T11:05:54.147Z,429.90
2018-06-21T11:06:54.228Z,392.00
2018-06-21T11:07:54.271Z,368.90
2018-06-21T11:08:54.281Z,380.70
2018-06-21T11:09:54.351Z,376.80
2018-06-21T11:10:54.408Z,380.80
2018-06-21T11:11:54.456Z,405.80
2018-06-21T11:12:54.501Z,373.30
2018-06-21T11:13:54.520Z,352.90
2018-06-21T11:14:54.675Z,317.90
2018-06-21T11:15:55.802Z,334.50
2018-06-21T11:16:54.723Z,318.00
2018-06-21T11:17:54.717Z,344.70
2018-06-21T11:18:54.747Z,357.90
2018-06-21T11:19:54.812Z,345.70
2018-06-21T11:20:54.868Z,391.00
2018-06-21T11:21:55.100Z,420.90
2018-06-21T11:22:54.968Z,426.00
2018-06-21T11:23:54.995Z,422.60
2018-06-21T11:24:55.061Z,423.20
2018-06-21T11:25:55.098Z,418.10
2018-06-21T11:26:55.170Z,343.70
2018-06-21T11:27:55.267Z,192.70
2018-06-21T11:28:55.271Z,136.60
2018-06-21T11:29:55.280Z,192.40
2018-06-21T11:30:55.356Z,202.80
2018-06-21T11:31:55.413Z,225.20
2018-06-21T11:32:55.453Z,246.90
2018-06-21T11:33:55.509Z,171.20
2018-06-21T11:34:55.547Z,221.60
2018-06-21T11:35:55.583Z,181.00
2018-06-21T11:36:55.644Z,206.90
2018-06-21T11:37:55.714Z,185.70
2018-06-21T11:38:55.728Z,187.30
2018-06-21T11:39:56.000Z,170.30
2018-06-21T11:40:55.830Z,195.50
2018-06-21T11:41:55.879Z,175.80
2018-06-21T11:42:55.948Z,183.40
2018-06-21T11:43:55.991Z,176.40
2018-06-21T11:44:56.069Z,265.90
2018-06-21T11:45:56.081Z,177.20
2018-06-21T11:46:56.183Z,195.00
2018-06-21T11:47:56.194Z,155.00
2018-06-21T11:48:56.244Z,162.50
2018-06-21T11:49:56.288Z,181.20
2018-06-21T11:50:56.362Z,180.40
2018-06-21T11:51:56.420Z,184.50
2018-06-21T11:52:56.419Z,196.20
2018-06-21T11:53:56.500Z,181.80
2018-06-21T11:54:56.547Z,190.10
2018-06-21T11:55:56.617Z,201.90
2018-06-21T11:56:56.621Z,226.90
2018-06-21T11:57:56.713Z,219.80
2018-06-21T11:58:56.742Z,204.10
2018-06-21T11:59:56.818Z,231.90
2018-06-21T12:00:56.854Z,228.20
2018-06-21T12:01:56.919Z,237.80
2018-06-21T12:02:56.953Z,227.00
2018-06-21T12:03:56.996Z,249.40
2018-06-21T12:04:57.045Z,222.00
2018-06-21T12:05:57.108Z,263.60
2018-06-21T12:06:57.144Z,245.70
2018-06-21T12:07:57.208Z,231.90
2018-06-21T12:08:57.257Z,235.40
2018-06-21T12:09:57.314Z,259.60
2018-06-21T12:10:57.360Z,255.70
2018-06-21T12:11:57.419Z,248.30
2018-06-21T12:12:57.459Z,279.20
2018-06-21T12:13:57.507Z,275.10
2018-06-21T12:14:57.752Z,278.80
2018-06-21T12:15:57.608Z,297.40
2018-06-21T12:16:57.672Z,300.30
2018-06-21T12:17:57.720Z,306.40
2018-06-21T12:18:57.768Z,302.10
2018-06-21T12:19:57.818Z,288.80
2018-06-21T12:20:57.849Z,307.50
2018-06-21T12:21:57.937Z,297.80
2018-06-21T12:22:57.980Z,308.50
2018-06-21T12:23:58.037Z,317.90
2018-06-21T12:24:58.312Z,309.20
2018-06-21T12:25:58.148Z,313.20
2018-06-21T12:26:58.187Z,321.70
2018-06-21T12:27:58.213Z,327.00
2018-06-21T12:28:58.305Z,294.00